createdAt,value
2018-05-07T00:02:05.428Z,3.23
2018-05-07T00:04:32.802Z,3.37
2018-05-07T00:07:00.231Z,2.67
2018-05-07T00:09:27.747Z,2.60
2018-05-07T00:11:55.131Z,2.50
2018-05-07T00:14:23.332Z,2.83
2018-05-07T00:16:50.800Z,3.13
2018-05-07T00:19:18.241Z,3.00
2018-05-07T00:21:45.683Z,3.33
2018-05-07T00:24:13.128Z,2.93
2018-05-07T00:26:41.397Z,2.67
2018-05-07T00:29:08.803Z,2.83
2018-05-07T00:31:36.231Z,2.80
2018-05-07T00:34:03.742Z,2.83
2018-05-07T00:36:31.176Z,2.63
2018-05-07T00:38:58.620Z,2.80
2018-05-07T00:41:26.056Z,3.23
2018-05-07T00:43:53.534Z,2.77
2018-05-07T00:46:21.023Z,3.20
2018-05-07T00:48:48.559Z,3.30
2018-05-07T00:51:16.008Z,3.30
2018-05-07T00:53:43.509Z,3.50
2018-05-07T00:56:10.927Z,3.60
2018-05-07T00:58:38.391Z,3.23
2018-05-07T01:01:05.843Z,3.30
2018-05-07T01:03:33.284Z,2.60
2018-05-07T01:06:00.711Z,3.40
2018-05-07T01:08:28.907Z,3.20
2018-05-07T01:10:56.395Z,3.10
2018-05-07T01:13:23.989Z,3.00
2018-05-07T01:15:51.415Z,3.40
2018-05-07T01:18:18.841Z,3.23
2018-05-07T01:20:46.318Z,3.17
2018-05-07T01:23:13.774Z,3.00
2018-05-07T01:25:41.211Z,3.83
2018-05-07T01:28:08.703Z,3.30
2018-05-07T01:30:36.150Z,3.13
2018-05-07T01:33:03.700Z,3.50
2018-05-07T01:35:31.147Z,2.90
2018-05-07T01:37:58.589Z,3.75
2018-05-07T01:40:26.785Z,3.17
2018-05-07T01:42:54.247Z,3.75
2018-05-07T01:45:21.710Z,3.20
2018-05-07T01:47:49.185Z,3.23
2018-05-07T01:50:17.550Z,3.53
2018-05-07T01:52:44.978Z,3.40
2018-05-07T01:55:12.465Z,3.33
2018-05-07T01:57:39.931Z,3.70
2018-05-07T02:00:07.390Z,4.00
2018-05-07T02:02:34.840Z,3.80
2018-05-07T02:05:02.268Z,3.63
2018-05-07T02:07:29.705Z,4.47
2018-05-07T02:09:57.914Z,4.10
2018-05-07T02:12:25.355Z,3.10
2018-05-07T02:14:52.804Z,4.00
2018-05-07T02:17:20.286Z,3.73
2018-05-07T02:19:47.716Z,3.93
2018-05-07T02:22:15.919Z,4.00
2018-05-07T02:24:43.373Z,3.80
2018-05-07T02:27:11.116Z,3.90
2018-05-07T02:29:38.607Z,3.90
2018-05-07T02:32:06.048Z,3.87
2018-05-07T02:34:33.519Z,3.90
2018-05-07T02:37:01.007Z,3.57
2018-05-07T02:39:28.546Z,3.80
2018-05-07T02:41:56.015Z,3.93
2018-05-07T02:44:23.467Z,4.93
2018-05-07T02:46:50.915Z,4.07
2018-05-07T02:49:18.359Z,3.93
2018-05-07T02:51:45.784Z,4.73
2018-05-07T02:54:13.971Z,4.03
2018-05-07T02:56:41.424Z,3.33
2018-05-07T02:59:09.639Z,3.70
2018-05-07T03:01:37.092Z,4.17
2018-05-07T03:04:04.555Z,3.80
2018-05-07T03:06:32.003Z,3.90
2018-05-07T03:08:59.432Z,3.93
2018-05-07T03:11:26.861Z,3.73
2018-05-07T03:13:54.295Z,4.13
2018-05-07T03:16:21.729Z,4.10
2018-05-07T03:18:49.167Z,4.43
2018-05-07T03:21:16.662Z,3.87
2018-05-07T03:23:44.111Z,4.27
2018-05-07T03:26:11.527Z,4.53
2018-05-07T03:28:38.960Z,4.90
2018-05-07T03:31:06.471Z,4.87
2018-05-07T03:33:33.915Z,5.10
2018-05-07T03:36:01.347Z,4.40
2018-05-07T03:38:29.663Z,4.43
2018-05-07T03:40:57.095Z,4.37
2018-05-07T03:43:24.627Z,4.50
2018-05-07T03:45:52.053Z,4.23
2018-05-07T03:48:19.487Z,5.40
2018-05-07T03:50:46.961Z,5.20
2018-05-07T03:53:14.398Z,5.00
2018-05-07T03:55:41.862Z,4.97
2018-05-07T03:58:09.314Z,4.73
2018-05-07T04:00:36.736Z,4.20
2018-05-07T04:03:04.947Z,4.47
2018-05-07T04:05:32.417Z,4.70
2018-05-07T04:07:59.858Z,4.53
2018-05-07T04:10:27.287Z,4.93
2018-05-07T04:12:55.479Z,5.00
2018-05-07T04:15:22.954Z,4.47
2018-05-07T04:18:02.390Z,5.37
2018-05-07T04:20:41.792Z,4.30
2018-05-07T04:23:21.906Z,5.13
2018-05-07T04:25:49.446Z,5.07
2018-05-07T04:28:16.910Z,4.87
2018-05-07T04:30:44.364Z,4.70
2018-05-07T04:33:11.825Z,4.57
2018-05-07T04:35:39.268Z,5.17
2018-05-07T04:38:06.704Z,5.28
2018-05-07T04:40:34.204Z,5.20
2018-05-07T04:43:01.653Z,5.83
2018-05-07T04:45:29.108Z,5.20
2018-05-07T04:47:56.556Z,5.40
2018-05-07T04:50:24.023Z,5.00
2018-05-07T04:52:51.466Z,5.30
2018-05-07T04:55:18.900Z,5.40
2018-05-07T04:57:46.382Z,5.50
2018-05-07T05:00:13.851Z,5.40
2018-05-07T05:02:41.287Z,5.40
2018-05-07T05:05:08.731Z,5.50
2018-05-07T05:07:36.163Z,5.63
2018-05-07T05:10:04.391Z,5.70
2018-05-07T05:12:31.826Z,4.47
2018-05-07T05:14:59.307Z,5.50
2018-05-07T05:17:26.762Z,6.20
2018-05-07T05:19:54.219Z,5.13
2018-05-07T05:22:21.659Z,5.30
2018-05-07T05:24:49.152Z,5.03
2018-05-07T05:27:16.612Z,5.33
2018-05-07T05:29:44.028Z,5.03
2018-05-07T05:32:11.511Z,5.60
2018-05-07T05:34:38.953Z,5.40
2018-05-07T05:37:06.420Z,5.80
2018-05-07T05:39:33.871Z,5.37
2018-05-07T05:42:01.343Z,5.77
2018-05-07T05:44:28.774Z,6.10
2018-05-07T05:46:56.230Z,5.67
2018-05-07T05:49:23.711Z,5.67
2018-05-07T05:51:51.155Z,6.30
2018-05-07T05:54:18.715Z,6.33
2018-05-07T05:56:46.160Z,6.73
2018-05-07T05:59:13.595Z,6.43
2018-05-07T06:01:41.805Z,5.60
2018-05-07T06:04:09.245Z,13.50
2018-05-07T06:06:36.674Z,10.47
2018-05-07T06:09:05.833Z,6.03
2018-05-07T06:11:33.236Z,5.63
2018-05-07T06:14:01.457Z,6.40
2018-05-07T06:16:28.898Z,6.80
2018-05-07T06:18:56.320Z,5.47
2018-05-07T06:21:24.551Z,5.30
2018-05-07T06:23:52.000Z,6.00
2018-05-07T06:26:19.450Z,5.03
2018-05-07T06:28:46.883Z,5.30
2018-05-07T06:31:14.307Z,5.37
2018-05-07T06:33:41.745Z,5.10
2018-05-07T06:36:09.218Z,5.57
2018-05-07T06:38:36.647Z,5.33
2018-05-07T06:41:04.107Z,5.33
2018-05-07T06:43:31.545Z,5.33
2018-05-07T06:45:59.055Z,5.43
2018-05-07T06:48:27.188Z,5.70
2018-05-07T06:50:54.630Z,5.27
2018-05-07T06:53:22.067Z,6.00
2018-05-07T06:55:49.587Z,5.07
2018-05-07T06:58:17.023Z,5.80
2018-05-07T07:00:44.460Z,5.50
2018-05-07T07:03:11.936Z,5.33
2018-05-07T07:05:40.142Z,4.67
2018-05-07T07:08:07.661Z,5.20
2018-05-07T07:10:35.015Z,5.10
2018-05-07T07:13:02.483Z,5.57
2018-05-07T07:15:29.927Z,5.43
2018-05-07T07:17:57.380Z,5.65
2018-05-07T07:20:24.822Z,4.80
2018-05-07T07:22:52.306Z,3.90
2018-05-07T07:25:19.752Z,4.23
2018-05-07T07:27:47.242Z,3.83
2018-05-07T07:30:14.787Z,3.80
2018-05-07T07:32:42.258Z,3.30
2018-05-07T07:35:09.683Z,4.50
2018-05-07T07:37:37.118Z,3.90
2018-05-07T07:40:04.632Z,3.60
2018-05-07T07:42:32.070Z,3.40
2018-05-07T07:44:59.570Z,4.20
2018-05-07T07:47:27.821Z,3.25
2018-05-07T07:49:55.262Z,3.42
2018-05-07T07:52:22.755Z,3.20
2018-05-07T07:54:50.143Z,3.20
2018-05-07T07:57:17.570Z,3.10
2018-05-07T07:59:45.008Z,2.95
2018-05-07T08:02:12.451Z,2.80
2018-05-07T08:04:39.879Z,3.60
2018-05-07T08:07:07.352Z,3.35
2018-05-07T08:09:34.769Z,3.60
2018-05-07T08:12:02.290Z,3.33
2018-05-07T08:14:30.185Z,3.15
2018-05-07T08:16:57.615Z,3.33
2018-05-07T08:19:25.091Z,3.10
2018-05-07T08:21:52.551Z,3.45
2018-05-07T08:24:19.974Z,2.95
2018-05-07T08:26:47.399Z,3.20
2018-05-07T08:29:14.834Z,2.95
2018-05-07T08:31:43.065Z,2.85
2018-05-07T08:34:10.487Z,2.60
2018-05-07T08:36:37.975Z,2.30
2018-05-07T08:39:06.063Z,2.62
2018-05-07T08:41:33.614Z,3.05
2018-05-07T08:44:01.072Z,3.03
2018-05-07T08:46:28.529Z,3.10
2018-05-07T08:48:56.028Z,2.85
2018-05-07T08:51:23.593Z,3.00
2018-05-07T08:53:51.802Z,3.62
2018-05-07T08:56:19.276Z,3.50
2018-05-07T08:58:46.816Z,2.83
2018-05-07T09:01:14.277Z,3.20
2018-05-07T09:03:42.465Z,2.90
2018-05-07T09:06:09.945Z,3.00
2018-05-07T09:08:37.392Z,3.15
2018-05-07T09:11:04.837Z,3.12
2018-05-07T09:13:32.273Z,3.30
2018-05-07T09:16:00.488Z,2.92
2018-05-07T09:18:27.955Z,3.22
2018-05-07T09:20:55.399Z,3.00
2018-05-07T09:23:22.841Z,2.90
2018-05-07T09:25:50.262Z,3.30
2018-05-07T09:28:18.462Z,2.87
2018-05-07T09:30:45.896Z,3.28
2018-05-07T09:33:14.110Z,3.10
2018-05-07T09:35:41.549Z,3.33
2018-05-07T09:38:09.291Z,3.60
2018-05-07T09:40:37.524Z,3.53
2018-05-07T09:43:05.009Z,3.42
2018-05-07T09:45:32.419Z,3.45
2018-05-07T09:47:59.859Z,4.55
2018-05-07T09:50:27.304Z,3.05
2018-05-07T09:52:55.500Z,3.60
2018-05-07T09:55:22.954Z,3.05
2018-05-07T09:58:02.239Z,3.58
2018-05-07T10:00:44.303Z,3.58
2018-05-07T10:03:11.759Z,3.10
2018-05-07T10:05:39.196Z,3.67
2018-05-07T10:08:06.699Z,3.50
2018-05-07T10:10:34.170Z,3.45
2018-05-07T10:13:01.596Z,2.72
2018-05-07T10:15:29.140Z,2.50
2018-05-07T10:17:56.577Z,2.42
2018-05-07T10:20:24.006Z,2.42
2018-05-07T10:22:52.217Z,2.80
2018-05-07T10:25:19.658Z,2.92
2018-05-07T10:27:47.886Z,2.60
2018-05-07T10:30:15.327Z,2.35
2018-05-07T10:32:42.783Z,1.90
2018-05-07T10:35:10.230Z,2.12
2018-05-07T10:37:37.688Z,2.22
2018-05-07T10:40:05.147Z,2.33
2018-05-07T10:42:32.573Z,2.72
2018-05-07T10:45:00.783Z,2.03
2018-05-07T10:47:28.237Z,2.28
2018-05-07T10:49:55.707Z,2.00
2018-05-07T10:52:23.163Z,1.90
2018-05-07T10:54:50.694Z,2.20
2018-05-07T10:57:18.146Z,2.00
2018-05-07T10:59:45.598Z,2.30
2018-05-07T11:02:13.053Z,2.20
2018-05-07T11:04:40.543Z,1.90
2018-05-07T11:07:08.021Z,2.20
2018-05-07T11:09:35.420Z,1.80
2018-05-07T11:12:04.359Z,2.10
2018-05-07T11:14:31.796Z,1.92
2018-05-07T11:16:59.231Z,1.92
2018-05-07T11:19:26.721Z,2.05
2018-05-07T11:21:54.172Z,1.73
2018-05-07T11:24:21.646Z,1.52
2018-05-07T11:26:49.063Z,1.10
2018-05-07T11:29:16.495Z,1.52
2018-05-07T11:31:44.806Z,1.60
2018-05-07T11:34:12.245Z,1.40
2018-05-07T11:36:39.905Z,1.85
2018-05-07T11:39:08.142Z,1.85
2018-05-07T11:41:35.543Z,1.40
2018-05-07T11:44:03.020Z,1.25
2018-05-07T11:46:30.466Z,1.37
2018-05-07T11:48:57.976Z,1.45
2018-05-07T11:51:26.182Z,1.52
2018-05-07T11:53:53.667Z,1.20
2018-05-07T11:56:21.126Z,1.70
2018-05-07T11:58:50.108Z,1.48
2018-05-07T12:01:17.645Z,1.37
2018-05-07T12:03:45.358Z,1.73
2018-05-07T12:06:12.783Z,1.40
2018-05-07T12:08:40.991Z,1.33
2018-05-07T12:11:08.445Z,1.17
2018-05-07T12:13:35.884Z,2.15
2018-05-07T12:16:03.357Z,1.60
2018-05-07T12:18:30.787Z,1.62
2018-05-07T12:20:58.202Z,1.67
2018-05-07T12:23:25.713Z,2.00
2018-05-07T12:25:53.201Z,1.60
2018-05-07T12:28:20.634Z,1.92
2018-05-07T12:30:48.077Z,2.08
2018-05-07T12:33:15.548Z,1.67
2018-05-07T12:35:43.027Z,2.05
2018-05-07T12:38:10.468Z,1.83
2018-05-07T12:40:38.008Z,1.85
2018-05-07T12:43:05.451Z,2.08
2018-05-07T12:45:32.879Z,1.98
2018-05-07T12:48:00.378Z,1.95
2018-05-07T12:50:27.816Z,2.10
2018-05-07T12:52:55.277Z,2.25
2018-05-07T12:55:22.831Z,1.90
2018-05-07T12:57:50.299Z,2.37
2018-05-07T13:00:17.733Z,2.47
2018-05-07T13:02:45.175Z,2.15
2018-05-07T13:05:13.385Z,3.00
2018-05-07T13:07:40.839Z,2.50
2018-05-07T13:10:08.348Z,2.65
2018-05-07T13:12:35.824Z,2.80
2018-05-07T13:15:04.118Z,2.35
2018-05-07T13:17:31.555Z,3.25
2018-05-07T13:19:58.997Z,2.60
2018-05-07T13:22:26.480Z,2.40
2018-05-07T13:24:54.072Z,2.60
2018-05-07T13:27:21.597Z,2.83
2018-05-07T13:29:48.993Z,2.70
2018-05-07T13:32:17.193Z,2.97
2018-05-07T13:34:45.439Z,2.67
2018-05-07T13:37:12.882Z,2.58
2018-05-07T13:39:40.309Z,3.17
2018-05-07T13:42:07.766Z,2.35
2018-05-07T13:44:35.193Z,2.50
2018-05-07T13:47:03.405Z,3.50
2018-05-07T13:49:30.956Z,3.95
2018-05-07T13:51:58.431Z,3.62
2018-05-07T13:54:25.887Z,3.30
2018-05-07T13:56:53.379Z,2.90
2018-05-07T13:59:20.783Z,3.10
2018-05-07T14:01:48.235Z,3.67
2018-05-07T14:04:15.707Z,3.20
2018-05-07T14:06:43.258Z,3.28
2018-05-07T14:09:10.710Z,3.30
2018-05-07T14:11:38.190Z,3.20
2018-05-07T14:14:05.639Z,3.70
2018-05-07T14:16:38.305Z,3.15
2018-05-07T14:19:06.390Z,4.37
2018-05-07T14:21:34.014Z,3.97
2018-05-07T14:24:02.322Z,3.90
2018-05-07T14:26:29.799Z,3.55
2018-05-07T14:28:57.247Z,3.25
2018-05-07T14:31:24.705Z,3.30
2018-05-07T14:33:52.149Z,3.47
2018-05-07T14:36:19.576Z,3.80
2018-05-07T14:38:47.890Z,4.10
2018-05-07T14:41:15.252Z,4.00
2018-05-07T14:43:42.821Z,3.95
2018-05-07T14:46:10.342Z,3.70
2018-05-07T14:48:37.890Z,3.25
2018-05-07T14:51:05.355Z,3.55
2018-05-07T14:53:32.907Z,3.60
2018-05-07T14:56:00.340Z,3.47
2018-05-07T14:58:28.536Z,5.05
2018-05-07T15:00:56.019Z,5.97
2018-05-07T15:03:23.492Z,6.03
2018-05-07T15:05:50.930Z,6.57
2018-05-07T15:08:19.099Z,7.65
2018-05-07T15:10:46.576Z,6.45
2018-05-07T15:13:14.143Z,5.95
2018-05-07T15:15:41.610Z,5.72
2018-05-07T15:18:08.997Z,4.80
2018-05-07T15:20:37.327Z,5.47
2018-05-07T15:23:04.775Z,5.35
2018-05-07T15:25:32.228Z,4.50
2018-05-07T15:27:59.677Z,4.20
2018-05-07T15:30:27.115Z,4.62
2018-05-07T15:32:54.578Z,4.65
2018-05-07T15:35:22.012Z,4.90
2018-05-07T15:37:50.211Z,4.60
2018-05-07T15:40:17.643Z,4.78
2018-05-07T15:42:45.857Z,4.70
2018-05-07T15:45:13.324Z,5.00
2018-05-07T15:47:40.950Z,5.30
2018-05-07T15:50:09.162Z,5.30
2018-05-07T15:52:36.619Z,5.37
2018-05-07T15:55:04.838Z,6.30
2018-05-07T15:57:32.285Z,6.10
2018-05-07T15:59:59.717Z,6.05
2018-05-07T16:02:27.969Z,5.82
2018-05-07T16:04:55.382Z,6.53
2018-05-07T16:07:22.852Z,4.53
2018-05-07T16:09:50.294Z,5.20
2018-05-07T16:12:17.785Z,5.05
2018-05-07T16:14:45.236Z,4.62
2018-05-07T16:17:12.689Z,4.90
2018-05-07T16:19:40.099Z,5.00
2018-05-07T16:22:07.873Z,5.68
2018-05-07T16:24:35.195Z,4.80
2018-05-07T16:27:04.035Z,4.60
2018-05-07T16:29:31.460Z,4.18
2018-05-07T16:31:59.655Z,4.00
2018-05-07T16:34:27.096Z,6.62
2018-05-07T16:36:54.592Z,7.72
2018-05-07T16:39:22.743Z,4.40
2018-05-07T16:41:50.192Z,4.00
2018-05-07T16:44:17.668Z,4.07
2018-05-07T16:46:45.131Z,2.80
2018-05-07T16:49:12.547Z,2.22
2018-05-07T16:51:40.747Z,1.83
2018-05-07T16:54:08.198Z,2.85
2018-05-07T16:56:35.633Z,2.80
2018-05-07T16:59:03.862Z,2.42
2018-05-07T17:01:31.287Z,2.20
2018-05-07T17:03:58.814Z,2.62
2018-05-07T17:06:26.232Z,2.78
2018-05-07T17:08:53.859Z,1.87
2018-05-07T17:11:22.156Z,2.40
2018-05-07T17:13:49.588Z,1.92
2018-05-07T17:16:17.042Z,2.50
2018-05-07T17:18:45.257Z,2.20
2018-05-07T17:21:12.651Z,2.05
2018-05-07T17:23:40.856Z,2.40
2018-05-07T17:26:08.279Z,2.75
2018-05-07T17:28:35.713Z,2.37
2018-05-07T17:31:03.165Z,2.03
2018-05-07T17:33:30.661Z,2.35
2018-05-07T17:35:58.071Z,2.00
2018-05-07T17:38:25.563Z,2.03
2018-05-07T17:40:53.007Z,2.97
2018-05-07T17:43:20.426Z,2.30
2018-05-07T17:46:00.463Z,2.72
2018-05-07T17:48:39.891Z,2.70
2018-05-07T17:51:08.100Z,2.50
2018-05-07T17:53:35.541Z,2.00
2018-05-07T17:56:02.983Z,3.97
2018-05-07T17:58:31.205Z,2.37
2018-05-07T18:00:58.629Z,1.77
2018-05-07T18:03:26.051Z,2.35
2018-05-07T18:05:54.260Z,2.00
2018-05-07T18:08:21.692Z,1.65
2018-05-07T18:10:50.142Z,1.70
2018-05-07T18:13:17.488Z,1.80
2018-05-07T18:15:44.921Z,1.70
2018-05-07T18:18:12.353Z,1.77
2018-05-07T18:20:40.626Z,1.90
2018-05-07T18:23:08.414Z,2.10
2018-05-07T18:25:35.929Z,1.95
2018-05-07T18:28:03.353Z,1.92
2018-05-07T18:30:30.942Z,2.05
2018-05-07T18:32:58.249Z,1.52
2018-05-07T18:35:25.712Z,2.10
2018-05-07T18:37:53.180Z,3.05
2018-05-07T18:40:20.620Z,3.20
2018-05-07T18:42:48.093Z,2.00
2018-05-07T18:45:15.520Z,1.87
2018-05-07T18:47:43.003Z,2.08
2018-05-07T18:50:10.473Z,3.00
2018-05-07T18:52:37.913Z,2.90
2018-05-07T18:55:05.379Z,2.67
2018-05-07T18:57:32.823Z,2.40
2018-05-07T19:00:00.295Z,2.10
2018-05-07T19:02:27.803Z,2.70
2018-05-07T19:04:56.014Z,2.83
2018-05-07T19:07:24.299Z,2.33
2018-05-07T19:09:51.950Z,2.70
2018-05-07T19:12:19.374Z,2.72
2018-05-07T19:14:47.589Z,2.95
2018-05-07T19:17:15.042Z,3.03
2018-05-07T19:19:42.653Z,2.40
2018-05-07T19:22:10.074Z,2.70
2018-05-07T19:24:37.573Z,2.90
2018-05-07T19:27:05.125Z,2.33
2018-05-07T19:29:32.550Z,3.00
2018-05-07T19:31:59.992Z,2.45
2018-05-07T19:34:27.431Z,19.20
2018-05-07T19:36:55.017Z,5.82
2018-05-07T19:39:22.471Z,3.95
2018-05-07T19:41:49.904Z,2.62
2018-05-07T19:44:17.374Z,2.83
2018-05-07T19:46:45.461Z,2.58
2018-05-07T19:49:12.871Z,3.47
2018-05-07T19:51:41.097Z,4.20
2018-05-07T19:54:08.583Z,4.82
2018-05-07T19:56:36.028Z,5.03
2018-05-07T19:59:03.512Z,4.90
2018-05-07T20:01:31.728Z,5.32
2018-05-07T20:03:59.190Z,4.60
2018-05-07T20:06:26.611Z,4.22
2018-05-07T20:08:54.848Z,3.58
2018-05-07T20:11:22.272Z,3.92
2018-05-07T20:13:49.721Z,3.62
2018-05-07T20:16:17.159Z,3.28
2018-05-07T20:18:45.391Z,3.58
2018-05-07T20:21:12.812Z,3.80
2018-05-07T20:23:40.355Z,2.70
2018-05-07T20:26:07.844Z,2.95
2018-05-07T20:28:35.367Z,3.03
2018-05-07T20:31:02.827Z,3.20
2018-05-07T20:33:30.305Z,3.35
2018-05-07T20:35:57.767Z,3.08
2018-05-07T20:38:25.219Z,3.97
2018-05-07T20:40:52.655Z,4.57
2018-05-07T20:43:20.087Z,4.45
2018-05-07T20:45:48.343Z,4.20
2018-05-07T20:48:15.906Z,5.10
2018-05-07T20:50:43.371Z,5.45
2018-05-07T20:53:10.804Z,5.30
2018-05-07T20:55:38.235Z,5.05
2018-05-07T20:58:05.692Z,6.33
2018-05-07T21:00:33.179Z,6.25
2018-05-07T21:03:01.668Z,6.30
2018-05-07T21:05:30.080Z,5.82
2018-05-07T21:07:58.407Z,5.78
2018-05-07T21:10:26.683Z,5.87
2018-05-07T21:12:54.397Z,5.12
2018-05-07T21:15:23.143Z,6.32
2018-05-07T21:17:50.579Z,5.03
2018-05-07T21:20:20.816Z,4.28
2018-05-07T21:22:48.268Z,4.50
2018-05-07T21:25:15.699Z,5.10
2018-05-07T21:27:43.257Z,5.22
2018-05-07T21:30:13.448Z,3.65
2018-05-07T21:32:41.074Z,4.22
2018-05-07T21:35:10.186Z,3.58
2018-05-07T21:37:37.614Z,4.18
2018-05-07T21:40:06.311Z,3.53
2018-05-07T21:42:33.983Z,3.50
2018-05-07T21:45:02.424Z,3.60
2018-05-07T21:47:30.310Z,3.73
2018-05-07T21:49:57.786Z,3.57
2018-05-07T21:52:25.232Z,4.00
2018-05-07T21:54:52.667Z,3.30
2018-05-07T21:57:21.613Z,3.47
2018-05-07T21:59:49.064Z,3.43
2018-05-07T22:02:16.517Z,3.03
2018-05-07T22:04:44.784Z,3.70
2018-05-07T22:07:12.219Z,3.63
2018-05-07T22:09:39.779Z,3.90
2018-05-07T22:12:07.247Z,3.50
2018-05-07T22:14:34.684Z,3.37
2018-05-07T22:17:03.113Z,3.13
2018-05-07T22:19:30.544Z,3.90
2018-05-07T22:21:57.959Z,3.13
2018-05-07T22:24:26.183Z,3.80
2018-05-07T22:26:53.612Z,4.10
2018-05-07T22:29:21.089Z,3.40
2018-05-07T22:31:48.533Z,3.30
2018-05-07T22:34:15.959Z,4.10
2018-05-07T22:36:44.162Z,4.37
2018-05-07T22:39:11.924Z,4.90
2018-05-07T22:41:39.373Z,4.40
2018-05-07T22:44:06.813Z,4.77
2018-05-07T22:46:35.036Z,4.10
2018-05-07T22:49:02.528Z,4.23
2018-05-07T22:51:29.900Z,4.23
2018-05-07T22:53:58.122Z,4.50
2018-05-07T22:56:25.574Z,4.27
2018-05-07T22:58:53.018Z,5.05
2018-05-07T23:01:20.499Z,4.60
2018-05-07T23:03:47.944Z,4.07
2018-05-07T23:06:15.390Z,4.37
2018-05-07T23:08:42.816Z,4.43
2018-05-07T23:11:11.028Z,4.60
2018-05-07T23:13:38.455Z,5.13
2018-05-07T23:16:05.883Z,4.83
2018-05-07T23:18:33.332Z,4.87
2018-05-07T23:21:00.765Z,4.87
2018-05-07T23:23:28.206Z,4.73
2018-05-07T23:25:55.643Z,4.90
2018-05-07T23:28:23.070Z,4.40
2018-05-07T23:30:51.292Z,4.30
2018-05-07T23:33:18.714Z,4.70
2018-05-07T23:35:46.909Z,4.70
2018-05-07T23:38:14.348Z,4.70
2018-05-07T23:40:42.539Z,4.90
2018-05-07T23:43:09.989Z,4.43
2018-05-07T23:45:37.487Z,5.35
2018-05-07T23:48:04.966Z,5.40
2018-05-07T23:50:32.400Z,5.63
2018-05-07T23:52:59.826Z,4.27
2018-05-07T23:55:27.346Z,5.17
2018-05-07T23:57:54.782Z,4.30
